Denver, Colorado
Traffic Map
Current Weather Conditions
Denver, Colorado
Clear
Clear
68°
Feels Like: 68°
Wind Chill: 68° Ceiling: Unl
Heat Index: 68° Visibility: 10mi
Dew Point: 39° Wind: 5mph
Humidity: 34% Direction: 220° (SW)
Pressure: 30.01in Gusts: 0mph
Raw Report DataKBKF 061558Z AUTO 22004KT 10SM CLR 20/04 A3001 RMK AO2 SLP097 T02010037
Traffic Incident Summary
Active as of:
Severity:
Category:
InformationThere was an issue retrieving the traffic information for this location. Please try a different location or try again shortly.
Advertisements
Track Severe Weather on mobile